createdAt,value
2019-05-01T00:02:05.885Z,42.95
2019-05-01T00:05:06.203Z,42.65
2019-05-01T00:07:36.978Z,42.47
2019-05-01T00:10:07.148Z,42.00
2019-05-01T00:12:37.489Z,42.27
2019-05-01T00:15:06.958Z,42.48
2019-05-01T00:17:36.890Z,41.08
2019-05-01T00:20:06.371Z,41.40
2019-05-01T00:22:35.643Z,41.50
2019-05-01T00:25:05.211Z,41.33
2019-05-01T00:27:35.735Z,38.50
2019-05-01T00:30:07.150Z,41.92
2019-05-01T00:32:38.066Z,40.65
2019-05-01T00:35:07.400Z,38.02
2019-05-01T00:37:36.739Z,39.70
2019-05-01T00:40:06.184Z,38.65
2019-05-01T00:42:35.392Z,39.63
2019-05-01T00:45:04.738Z,40.73
2019-05-01T00:47:34.102Z,39.95
2019-05-01T00:50:03.378Z,38.70
2019-05-01T00:52:32.622Z,41.42
2019-05-01T00:55:19.734Z,42.10
2019-05-01T00:57:58.490Z,41.00
2019-05-01T01:00:45.980Z,43.30
2019-05-01T01:03:15.182Z,43.52
2019-05-01T01:05:44.352Z,43.80
2019-05-01T01:08:13.557Z,42.78
2019-05-01T01:10:42.743Z,42.35
2019-05-01T01:13:11.970Z,40.58
2019-05-01T01:15:41.137Z,38.98
2019-05-01T01:18:10.399Z,40.07
2019-05-01T01:20:39.611Z,39.35
2019-05-01T01:23:08.762Z,40.40
2019-05-01T01:25:37.919Z,40.50
2019-05-01T01:28:07.125Z,41.40
2019-05-01T01:30:36.283Z,42.45
2019-05-01T01:33:05.446Z,42.05
2019-05-01T01:35:34.640Z,43.80
2019-05-01T01:38:03.896Z,44.50
2019-05-01T01:40:33.332Z,42.25
2019-05-01T01:43:22.790Z,42.33
2019-05-01T01:45:54.869Z,43.35
2019-05-01T01:48:24.136Z,41.75
2019-05-01T01:50:53.450Z,41.60
2019-05-01T01:53:22.906Z,39.92
2019-05-01T01:55:52.158Z,41.35
2019-05-01T01:58:22.306Z,41.08
2019-05-01T02:01:19.555Z,43.55
2019-05-01T02:03:53.238Z,42.85
2019-05-01T02:06:22.420Z,44.75
2019-05-01T02:08:56.664Z,45.70
2019-05-01T02:11:22.642Z,42.62
2019-05-01T02:13:55.843Z,46.03
2019-05-01T02:16:25.465Z,46.50
2019-05-01T02:18:55.183Z,42.73
2019-05-01T02:21:24.390Z,43.28
2019-05-01T02:23:53.619Z,43.75
2019-05-01T02:26:24.584Z,44.55
2019-05-01T02:29:04.603Z,45.83
2019-05-01T02:31:39.701Z,45.10
2019-05-01T02:34:09.246Z,45.20
2019-05-01T02:36:38.577Z,42.73
2019-05-01T02:39:10.055Z,45.03
2019-05-01T02:41:41.914Z,42.05
2019-05-01T02:44:22.794Z,41.20
2019-05-01T02:46:52.756Z,40.23
2019-05-01T02:49:45.787Z,41.33
2019-05-01T02:52:15.376Z,42.48
2019-05-01T02:54:46.560Z,39.80
2019-05-01T02:57:18.091Z,43.25
2019-05-01T02:59:49.844Z,43.17
2019-05-01T03:02:19.994Z,42.15
2019-05-01T03:04:49.758Z,44.93
2019-05-01T03:07:19.157Z,46.90
2019-05-01T03:09:48.319Z,45.05
2019-05-01T03:12:19.032Z,45.85
2019-05-01T03:14:49.687Z,44.15
2019-05-01T03:17:36.744Z,43.13
2019-05-01T03:20:21.679Z,44.25
2019-05-01T03:23:10.414Z,48.20
2019-05-01T03:25:39.768Z,51.88
2019-05-01T03:28:09.103Z,53.33
2019-05-01T03:30:38.395Z,51.77
2019-05-01T03:33:07.549Z,50.70
2019-05-01T03:35:36.752Z,51.83
2019-05-01T03:38:05.906Z,56.65
2019-05-01T03:40:35.095Z,57.58
2019-05-01T03:43:04.493Z,58.23
2019-05-01T03:45:34.445Z,58.83
2019-05-01T03:48:04.283Z,58.70
2019-05-01T03:50:33.581Z,55.17
2019-05-01T03:53:03.169Z,54.73
2019-05-01T03:55:32.524Z,52.03
2019-05-01T03:58:02.239Z,50.67
2019-05-01T04:00:44.258Z,48.90
2019-05-01T04:03:26.605Z,43.28
2019-05-01T04:05:55.861Z,44.75
2019-05-01T04:08:25.876Z,46.10
2019-05-01T04:10:55.692Z,43.95
2019-05-01T04:13:25.027Z,40.50
2019-05-01T04:15:54.630Z,39.95
2019-05-01T04:18:24.407Z,39.08
2019-05-01T04:20:53.602Z,36.43
2019-05-01T04:23:22.910Z,37.10
2019-05-01T04:25:52.180Z,35.95
2019-05-01T04:28:49.713Z,36.70
2019-05-01T04:31:36.604Z,40.55
2019-05-01T04:34:15.018Z,39.08
2019-05-01T04:36:47.419Z,38.10
2019-05-01T04:39:16.612Z,38.48
2019-05-01T04:41:45.917Z,37.58
2019-05-01T04:44:15.288Z,37.38
2019-05-01T04:46:44.444Z,39.60
2019-05-01T04:49:13.580Z,38.40
2019-05-01T04:51:42.883Z,35.52
2019-05-01T04:54:12.078Z,35.03
2019-05-01T04:56:41.328Z,33.17
2019-05-01T04:59:10.666Z,34.20
2019-05-01T05:01:57.999Z,33.90
2019-05-01T05:04:28.199Z,34.00
2019-05-01T05:06:57.453Z,32.50
2019-05-01T05:09:46.607Z,31.75
2019-05-01T05:12:23.107Z,32.48
2019-05-01T05:14:56.064Z,30.08
2019-05-01T05:17:25.375Z,31.45
2019-05-01T05:19:54.568Z,30.52
2019-05-01T05:22:24.016Z,29.53
2019-05-01T05:24:53.962Z,30.32
2019-05-01T05:27:24.760Z,28.20
2019-05-01T05:29:57.281Z,29.98
2019-05-01T05:32:27.509Z,32.50
2019-05-01T05:34:58.176Z,31.15
2019-05-01T05:37:32.429Z,31.75
2019-05-01T05:40:03.111Z,29.43
2019-05-01T05:42:32.501Z,33.02
2019-05-01T05:45:01.826Z,29.17
2019-05-01T05:47:31.015Z,29.07
2019-05-01T05:50:00.225Z,30.17
2019-05-01T05:52:41.425Z,29.60
2019-05-01T05:55:16.422Z,28.77
2019-05-01T05:58:16.697Z,30.00
2019-05-01T06:01:16.751Z,29.80
2019-05-01T06:04:25.759Z,31.65
2019-05-01T06:07:16.460Z,31.05
2019-05-01T06:09:52.898Z,27.85
2019-05-01T06:12:46.246Z,27.82
2019-05-01T06:15:31.438Z,27.35
2019-05-01T06:18:08.180Z,26.12
2019-05-01T06:20:44.261Z,25.87
2019-05-01T06:23:34.414Z,24.82
2019-05-01T06:26:23.248Z,24.10
2019-05-01T06:28:55.868Z,24.90
2019-05-01T06:31:25.131Z,24.98
2019-05-01T06:33:54.958Z,26.35
2019-05-01T06:36:24.435Z,26.35
2019-05-01T06:38:53.986Z,25.48
2019-05-01T06:41:23.461Z,25.27
2019-05-01T06:44:04.051Z,24.65
2019-05-01T06:46:40.638Z,25.68
2019-05-01T06:49:35.189Z,24.30
2019-05-01T06:52:05.771Z,27.45
2019-05-01T06:54:36.764Z,26.93
2019-05-01T06:57:06.597Z,25.85
2019-05-01T06:59:37.616Z,25.82
2019-05-01T07:02:07.348Z,25.48
2019-05-01T07:04:38.086Z,24.18
2019-05-01T07:07:24.056Z,26.00
2019-05-01T07:09:38.684Z,26.42
2019-05-01T07:12:12.564Z,27.27
2019-05-01T07:14:47.142Z,25.90
2019-05-01T07:17:14.848Z,26.63
2019-05-01T07:20:02.129Z,25.10
2019-05-01T07:22:31.491Z,27.55
2019-05-01T07:25:04.163Z,27.40
2019-05-01T07:27:32.190Z,28.57
2019-05-01T07:30:09.927Z,28.73
2019-05-01T07:32:41.199Z,26.93
2019-05-01T07:35:10.396Z,25.57
2019-05-01T07:37:39.864Z,26.57
2019-05-01T07:40:09.282Z,25.45
2019-05-01T07:42:43.772Z,26.02
2019-05-01T07:45:43.511Z,24.15
2019-05-01T07:48:10.760Z,25.60
2019-05-01T07:50:40.342Z,25.67
2019-05-01T07:53:09.547Z,25.77
2019-05-01T07:55:39.004Z,25.25
2019-05-01T07:58:10.340Z,25.60
2019-05-01T08:01:02.955Z,24.70
2019-05-01T08:03:33.318Z,23.60
2019-05-01T08:06:02.473Z,25.17
2019-05-01T08:08:31.650Z,23.42
2019-05-01T08:11:04.977Z,24.82
2019-05-01T08:13:34.997Z,24.60
2019-05-01T08:16:07.106Z,24.18
2019-05-01T08:18:43.701Z,23.03
2019-05-01T08:21:31.853Z,22.85
2019-05-01T08:24:01.676Z,24.15
2019-05-01T08:26:30.908Z,23.12
2019-05-01T08:29:24.107Z,21.65
2019-05-01T08:32:15.089Z,23.15
2019-05-01T08:34:49.222Z,22.60
2019-05-01T08:37:17.912Z,22.62
2019-05-01T08:39:46.135Z,23.77
2019-05-01T08:42:15.520Z,22.65
2019-05-01T08:44:59.940Z,22.62
2019-05-01T08:47:31.706Z,22.42
2019-05-01T08:50:06.996Z,21.82
2019-05-01T08:52:36.191Z,21.82
2019-05-01T08:55:09.341Z,22.13
2019-05-01T08:57:39.290Z,23.85
2019-05-01T09:00:08.335Z,23.00
2019-05-01T09:02:41.624Z,22.73
2019-05-01T09:05:27.794Z,21.45
2019-05-01T09:07:40.665Z,21.57
2019-05-01T09:10:10.000Z,21.82
2019-05-01T09:12:42.653Z,23.15
2019-05-01T09:15:12.538Z,23.47
2019-05-01T09:17:41.039Z,23.07
2019-05-01T09:20:10.314Z,22.75
2019-05-01T09:22:39.563Z,23.98
2019-05-01T09:25:10.445Z,23.38
2019-05-01T09:27:59.492Z,24.05
2019-05-01T09:30:39.124Z,24.20
2019-05-01T09:33:08.274Z,23.45
2019-05-01T09:35:40.140Z,24.32
2019-05-01T09:38:08.515Z,24.05
2019-05-01T09:40:37.672Z,23.95
2019-05-01T09:43:06.828Z,24.10
2019-05-01T09:45:36.029Z,24.77
2019-05-01T09:48:05.821Z,25.05
2019-05-01T09:50:36.663Z,24.50
2019-05-01T09:53:13.920Z,24.67
2019-05-01T09:56:03.176Z,26.42
2019-05-01T09:58:32.574Z,27.57
2019-05-01T10:01:01.792Z,27.65
2019-05-01T10:03:31.189Z,26.37
2019-05-01T10:06:00.377Z,27.42
2019-05-01T10:08:29.556Z,27.73
2019-05-01T10:10:59.957Z,27.13
2019-05-01T10:13:29.748Z,26.12
2019-05-01T10:15:58.941Z,27.75
2019-05-01T10:18:28.107Z,28.12
2019-05-01T10:20:57.356Z,28.35
2019-05-01T10:23:26.531Z,28.30
2019-05-01T10:25:57.390Z,27.30
2019-05-01T10:28:45.042Z,28.57
2019-05-01T10:31:34.582Z,28.75
2019-05-01T10:34:12.809Z,29.12
2019-05-01T10:36:49.851Z,31.77
2019-05-01T10:39:19.729Z,31.73
2019-05-01T10:41:48.126Z,31.60
2019-05-01T10:44:17.306Z,31.27
2019-05-01T10:46:46.502Z,30.77
2019-05-01T10:49:15.662Z,31.37
2019-05-01T10:51:44.882Z,31.05
2019-05-01T10:54:14.080Z,31.20
2019-05-01T10:56:43.268Z,30.82
2019-05-01T10:59:12.425Z,29.75
2019-05-01T11:01:47.999Z,30.02
2019-05-01T11:04:17.380Z,30.43
2019-05-01T11:06:46.646Z,30.40
2019-05-01T11:09:16.344Z,31.90
2019-05-01T11:11:45.507Z,31.37
2019-05-01T11:14:15.263Z,32.88
2019-05-01T11:16:44.440Z,32.55
2019-05-01T11:19:13.590Z,30.15
2019-05-01T11:21:42.796Z,31.45
2019-05-01T11:24:11.945Z,30.20
2019-05-01T11:26:41.170Z,28.90
2019-05-01T11:29:10.396Z,29.45
2019-05-01T11:31:58.539Z,28.75
2019-05-01T11:34:48.064Z,28.42
2019-05-01T11:37:34.657Z,28.20
2019-05-01T11:40:14.093Z,29.15
2019-05-01T11:42:43.314Z,28.70
2019-05-01T11:45:12.866Z,28.45
2019-05-01T11:47:42.105Z,28.05
2019-05-01T11:50:11.664Z,27.87
2019-05-01T11:52:41.008Z,28.62
2019-05-01T11:55:10.271Z,28.17
2019-05-01T11:57:39.624Z,28.55
2019-05-01T12:00:10.129Z,28.38
2019-05-01T12:02:39.440Z,28.02
2019-05-01T12:05:08.874Z,28.02
2019-05-01T12:07:38.077Z,27.80
2019-05-01T12:10:07.454Z,29.43
2019-05-01T12:12:36.683Z,27.73
2019-05-01T12:15:07.088Z,28.87
2019-05-01T12:17:50.956Z,30.00
2019-05-01T12:20:20.687Z,30.37
2019-05-01T12:22:51.356Z,30.45
2019-05-01T12:25:18.617Z,31.77
2019-05-01T12:27:46.761Z,30.02
2019-05-01T12:30:16.608Z,31.85
2019-05-01T12:32:44.762Z,30.45
2019-05-01T12:35:13.007Z,32.97
2019-05-01T12:37:43.150Z,31.20
2019-05-01T12:40:13.043Z,32.03
2019-05-01T12:42:41.123Z,34.25
2019-05-01T12:45:09.555Z,33.48
2019-05-01T12:47:59.970Z,31.57
2019-05-01T12:50:28.284Z,32.07
2019-05-01T12:53:03.101Z,31.40
2019-05-01T12:55:39.895Z,30.50
2019-05-01T12:58:08.183Z,31.07
2019-05-01T13:00:43.555Z,31.65
2019-05-01T13:03:11.732Z,31.07
2019-05-01T13:05:39.920Z,30.37
2019-05-01T13:08:08.146Z,32.95
2019-05-01T13:10:36.232Z,33.83
2019-05-01T13:13:04.378Z,32.47
2019-05-01T13:15:32.444Z,32.80
2019-05-01T13:18:00.528Z,31.60
2019-05-01T13:20:28.666Z,30.65
2019-05-01T13:22:56.737Z,32.23
2019-05-01T13:25:24.857Z,32.78
2019-05-01T13:27:58.560Z,34.75
2019-05-01T13:30:45.661Z,34.88
2019-05-01T13:33:13.892Z,35.15
2019-05-01T13:35:41.968Z,34.35
2019-05-01T13:38:10.045Z,33.88
2019-05-01T13:40:38.954Z,33.33
2019-05-01T13:43:07.027Z,34.35
2019-05-01T13:45:35.146Z,35.70
2019-05-01T13:48:03.257Z,34.70
2019-05-01T13:50:31.688Z,33.90
2019-05-01T13:52:59.807Z,33.05
2019-05-01T13:55:28.331Z,33.80
2019-05-01T13:57:56.929Z,35.80
2019-05-01T14:00:26.672Z,35.13
2019-05-01T14:02:54.825Z,34.08
2019-05-01T14:05:24.504Z,33.80
2019-05-01T14:07:52.728Z,29.75
2019-05-01T14:10:21.268Z,28.52
2019-05-01T14:12:49.367Z,28.47
2019-05-01T14:15:17.486Z,27.20
2019-05-01T14:17:45.548Z,25.80
2019-05-01T14:20:32.597Z,26.57
2019-05-01T14:23:08.996Z,24.47
2019-05-01T14:25:54.802Z,26.02
2019-05-01T14:28:22.999Z,25.12
2019-05-01T14:30:51.259Z,25.35
2019-05-01T14:33:19.782Z,28.65
2019-05-01T14:35:47.857Z,29.63
2019-05-01T14:38:15.986Z,29.35
2019-05-01T14:40:44.099Z,29.03
2019-05-01T14:43:12.359Z,28.85
2019-05-01T14:45:40.440Z,28.20
2019-05-01T14:48:08.628Z,26.48
2019-05-01T14:50:36.789Z,24.63
2019-05-01T14:53:04.870Z,24.52
2019-05-01T14:55:32.931Z,25.25
2019-05-01T14:58:02.419Z,24.80
2019-05-01T15:00:31.493Z,24.95
2019-05-01T15:02:59.705Z,24.72
2019-05-01T15:05:27.797Z,24.50
2019-05-01T15:07:57.064Z,24.82
2019-05-01T15:10:25.210Z,24.03
2019-05-01T15:12:55.144Z,24.15
2019-05-01T15:15:30.356Z,24.43
2019-05-01T15:18:02.531Z,23.30
2019-05-01T15:20:30.588Z,23.07
2019-05-01T15:22:58.710Z,23.42
2019-05-01T15:25:26.924Z,23.23
2019-05-01T15:27:55.040Z,23.35
2019-05-01T15:30:23.133Z,23.20
2019-05-01T15:32:51.188Z,22.87
2019-05-01T15:35:19.292Z,22.77
2019-05-01T15:37:56.603Z,22.42
2019-05-01T15:40:31.979Z,22.55
2019-05-01T15:43:19.108Z,22.50
2019-05-01T15:45:47.584Z,22.90
2019-05-01T15:48:15.656Z,23.67
2019-05-01T15:50:44.805Z,22.30
2019-05-01T15:53:12.927Z,21.60
2019-05-01T15:55:40.924Z,22.33
2019-05-01T15:58:09.392Z,22.60
2019-05-01T16:00:37.462Z,23.40
2019-05-01T16:03:05.563Z,22.77
2019-05-01T16:05:33.671Z,21.48
2019-05-01T16:08:09.547Z,21.75
2019-05-01T16:10:36.748Z,22.23
2019-05-01T16:13:04.949Z,21.60
2019-05-01T16:15:34.584Z,21.93
2019-05-01T16:18:02.824Z,22.55
2019-05-01T16:20:31.021Z,19.90
2019-05-01T16:22:59.168Z,19.87
2019-05-01T16:25:27.232Z,21.63
2019-05-01T16:27:55.858Z,20.63
2019-05-01T16:30:25.308Z,21.13
2019-05-01T16:32:53.616Z,19.93
2019-05-01T16:35:21.690Z,20.20
2019-05-01T16:37:49.774Z,21.17
2019-05-01T16:40:44.095Z,19.93
2019-05-01T16:43:13.249Z,20.67
2019-05-01T16:45:41.719Z,21.10
2019-05-01T16:48:09.859Z,21.23
2019-05-01T16:50:38.055Z,22.10
2019-05-01T16:53:06.150Z,21.37
2019-05-01T16:55:34.352Z,20.17
2019-05-01T16:58:02.474Z,20.00
2019-05-01T17:00:52.714Z,21.37
2019-05-01T17:03:24.337Z,21.83
2019-05-01T17:05:59.569Z,21.97
2019-05-01T17:08:46.715Z,23.80
2019-05-01T17:11:15.029Z,21.07
2019-05-01T17:13:43.220Z,20.57
2019-05-01T17:16:11.501Z,22.17
2019-05-01T17:18:39.902Z,20.90
2019-05-01T17:21:09.168Z,20.50
2019-05-01T17:23:37.548Z,20.47
2019-05-01T17:26:05.665Z,22.33
2019-05-01T17:28:33.781Z,22.80
2019-05-01T17:31:01.894Z,23.55
2019-05-01T17:33:30.307Z,24.05
2019-05-01T17:35:58.447Z,23.92
2019-05-01T17:38:26.538Z,23.47
2019-05-01T17:40:54.666Z,22.50
2019-05-01T17:43:23.405Z,23.80
2019-05-01T17:45:52.515Z,23.10
2019-05-01T17:48:20.928Z,23.32
2019-05-01T17:50:49.028Z,23.80
2019-05-01T17:53:17.547Z,23.62
2019-05-01T17:55:46.076Z,23.50
2019-05-01T17:58:14.207Z,23.02
2019-05-01T18:01:00.254Z,22.93
2019-05-01T18:03:56.661Z,21.27
2019-05-01T18:06:33.581Z,21.20
2019-05-01T18:09:03.080Z,22.80
2019-05-01T18:11:31.645Z,17.40
2019-05-01T18:13:59.807Z,22.27
2019-05-01T18:16:27.907Z,17.60
2019-05-01T18:18:56.104Z,19.20
2019-05-01T18:21:24.228Z,17.70
2019-05-01T18:24:14.662Z,21.27
2019-05-01T18:27:14.655Z,17.43
2019-05-01T18:29:53.517Z,17.57
2019-05-01T18:32:41.516Z,16.53
2019-05-01T18:35:14.171Z,19.03
2019-05-01T18:37:50.605Z,16.87
2019-05-01T18:40:34.011Z,16.57
2019-05-01T18:43:02.733Z,16.77
2019-05-01T18:45:50.169Z,16.70
2019-05-01T18:48:19.132Z,16.67
2019-05-01T18:50:54.978Z,15.70
2019-05-01T18:53:21.899Z,15.00
2019-05-01T18:55:52.579Z,14.23
2019-05-01T18:58:20.817Z,14.40
2019-05-01T19:00:49.845Z,13.57
2019-05-01T19:03:18.373Z,14.60
2019-05-01T19:05:48.227Z,15.47
2019-05-01T19:08:16.583Z,15.53
2019-05-01T19:10:45.199Z,14.23
2019-05-01T19:13:14.002Z,13.80
2019-05-01T19:15:42.441Z,16.77
2019-05-01T19:18:11.474Z,14.83
2019-05-01T19:20:42.274Z,14.87
2019-05-01T19:23:10.693Z,14.80
2019-05-01T19:25:40.510Z,15.27
2019-05-01T19:28:11.260Z,12.33
2019-05-01T19:30:39.443Z,17.00
2019-05-01T19:33:08.347Z,16.50
2019-05-01T19:35:37.564Z,15.60
2019-05-01T19:38:05.989Z,17.23
2019-05-01T19:40:34.155Z,15.43
2019-05-01T19:43:02.326Z,19.10
2019-05-01T19:45:32.762Z,14.90
2019-05-01T19:48:05.395Z,15.67
2019-05-01T19:50:39.944Z,16.93
2019-05-01T19:53:10.141Z,16.73
2019-05-01T19:55:39.947Z,14.70
2019-05-01T19:58:13.305Z,14.37
2019-05-01T20:01:04.505Z,14.67
2019-05-01T20:03:36.380Z,14.80
2019-05-01T20:06:06.185Z,15.67
2019-05-01T20:08:35.387Z,18.30
2019-05-01T20:11:09.581Z,16.17
2019-05-01T20:13:39.009Z,18.62
2019-05-01T20:16:08.872Z,18.57
2019-05-01T20:18:37.589Z,18.92
2019-05-01T20:21:06.436Z,19.00
2019-05-01T20:23:36.633Z,18.95
2019-05-01T20:26:04.950Z,20.75
2019-05-01T20:28:34.621Z,18.92
2019-05-01T20:31:02.923Z,19.40
2019-05-01T20:33:33.378Z,18.95
2019-05-01T20:36:05.246Z,19.45
2019-05-01T20:38:31.161Z,19.55
2019-05-01T20:40:59.756Z,19.27
2019-05-01T20:43:28.531Z,20.15
2019-05-01T20:45:56.807Z,19.40
2019-05-01T20:48:25.296Z,20.50
2019-05-01T20:50:53.660Z,19.90
2019-05-01T20:53:22.019Z,20.75
2019-05-01T20:56:02.266Z,19.70
2019-05-01T20:58:30.402Z,19.67
2019-05-01T21:01:02.355Z,20.80
2019-05-01T21:03:30.839Z,20.50
2019-05-01T21:06:14.400Z,21.35
2019-05-01T21:08:56.369Z,22.10
2019-05-01T21:11:29.039Z,21.42
2019-05-01T21:14:14.791Z,21.93
2019-05-01T21:16:26.905Z,21.37
2019-05-01T21:18:55.317Z,21.27
2019-05-01T21:21:24.093Z,21.40
2019-05-01T21:23:53.422Z,20.95
2019-05-01T21:26:23.437Z,22.90
2019-05-01T21:28:51.550Z,20.85
2019-05-01T21:31:19.628Z,21.47
2019-05-01T21:33:50.543Z,21.05
2019-05-01T21:36:17.715Z,22.25
2019-05-01T21:38:45.791Z,23.18
2019-05-01T21:41:14.977Z,22.97
2019-05-01T21:43:43.665Z,22.82
2019-05-01T21:46:12.546Z,22.62
2019-05-01T21:48:40.703Z,23.52
2019-05-01T21:51:08.814Z,24.35
2019-05-01T21:53:37.307Z,21.63
2019-05-01T21:56:07.638Z,23.33
2019-05-01T21:58:36.009Z,20.53
2019-05-01T22:01:06.050Z,22.00
2019-05-01T22:03:34.151Z,22.53
2019-05-01T22:06:02.504Z,23.83
2019-05-01T22:08:34.462Z,22.37
2019-05-01T22:11:01.869Z,20.00
2019-05-01T22:13:30.123Z,23.00
2019-05-01T22:16:04.303Z,23.83
2019-05-01T22:18:37.745Z,23.98
2019-05-01T22:21:12.288Z,24.27
2019-05-01T22:23:58.436Z,24.60
2019-05-01T22:26:28.391Z,24.57
2019-05-01T22:28:57.643Z,23.40
2019-05-01T22:31:47.448Z,24.02
2019-05-01T22:34:36.316Z,24.00
2019-05-01T22:37:04.487Z,23.60
2019-05-01T22:39:34.481Z,24.55
2019-05-01T22:42:02.654Z,24.18
2019-05-01T22:44:30.863Z,24.07
2019-05-01T22:46:58.935Z,24.40
2019-05-01T22:49:27.107Z,24.10
2019-05-01T22:51:55.377Z,25.60
2019-05-01T22:54:23.635Z,25.85
2019-05-01T22:56:51.945Z,26.05
2019-05-01T22:59:20.034Z,26.85
2019-05-01T23:01:53.009Z,29.00
2019-05-01T23:04:19.924Z,27.82
2019-05-01T23:06:47.998Z,28.67
2019-05-01T23:09:17.430Z,29.65
2019-05-01T23:11:47.558Z,28.25
2019-05-01T23:14:16.643Z,33.88
2019-05-01T23:16:51.821Z,30.68
2019-05-01T23:19:22.776Z,29.10
2019-05-01T23:21:50.912Z,29.00
2019-05-01T23:24:20.188Z,30.23
2019-05-01T23:26:51.808Z,29.65
2019-05-01T23:29:18.013Z,29.15
2019-05-01T23:31:46.119Z,29.35
2019-05-01T23:34:14.226Z,29.52
2019-05-01T23:36:42.368Z,30.10
2019-05-01T23:39:11.240Z,32.48
2019-05-01T23:41:45.653Z,32.38
2019-05-01T23:44:09.182Z,32.58
2019-05-01T23:46:37.272Z,31.37
2019-05-01T23:49:05.468Z,31.82
2019-05-01T23:51:33.560Z,32.13
2019-05-01T23:54:01.638Z,30.95
2019-05-01T23:56:31.079Z,34.03
2019-05-01T23:58:59.536Z,33.93
